Cabool, MO (65689)

7:16 AM CST on February 07, 2016 (GMT -0600)
Country | | Change Station
CLOSE
Current Station
Personal Weather Station
Location: Elk Creek, MO
Elevation: 1332 ft
Nearby Weather Stations

Elev 1332 ft 37.15 °N, 91.91 °W | Updated 4 minutes ago

Partly Cloudy
Partly Cloudy
37.9 °F
Feels Like 38 °F
N
1.0
Wind Variable Wind from SW
Gusts 5.0 mph

Today
High -- | Low -- °F
--% Chance of Precip.
Yesterday
High -- | Low -- °F
Precip. -- in
Pressure 30.13 in
Visibility 8.0 miles
Clouds Clear
Windchill 38 °F
Dew Point 28 °F
Humidity 68%
Rainfall 0.00 in
Snow Depth Not available.
7:06 AM 5:39 PM
Waning Crescent, 2% visible
METAR KUNO 071253Z AUTO 22007KT 8SM CLR 01/M08 A3011 RMK AO2 SLP203 T00111078
Pressure 30.13 in
Visibility 8.0 miles
Clouds Clear
Windchill 38 °F
Dew Point 28 °F
Humidity 68%
Rainfall 0.00 in
Snow Depth Not available.
7:06 AM 5:39 PM
Waning Crescent, 2% visible
METAR KUNO 071253Z AUTO 22007KT 8SM CLR 01/M08 A3011 RMK AO2 SLP203 T00111078

10-Day Weather Forecast

Almanac

Astronomy

Feb. 07, 2016 Rise Set
Actual Time
Civil Twilight
Nautical Twilight
Astronomical Twilight
Moon
Length of Visible Light
Length of Day
Tomorrow will be .
, % of the Moon is Illuminated

Today's Extremes

State Highs State Lows

Community

WunderPhotos

Upload Photos

1,891,190 photos uploaded!

WunderBlog® & News

Nearby

Air Quality

  Air Quality AQ Index Pollutant
Not available.

Snow Depth

Station Depth Elevation

Earthquake Activity

City Distance Mag. Time & Date
Minimum magnitude displayed is 2.5.

Coastal Water Temperatures

Place Temperature

Stations

Nearby Weather Stations

Station Location Temp. Windchill Dew Point Humidity Wind Precip. Elev Updated Type
                   

Watches & Warnings

There are currently no watches in effect.